Time;durP1;ratioP1;P1;durP2;ratioP2;P2;SDS_P1;SDS_P2;PMS_P1;PMS_P2;Temp;Humidity;BMP_temperature;BMP_pressure;BME280_temperature;BME280_humidity;BME280_pressure;Samples;Min_cycle;Max_cycle;Signal;HPM_P1;HPM_P2
2021/05/04 00:01:13;;;;;;;10.45;7.00;;;;;;;7.16;63.49;96121.31;5089370;28;20407;-67
2021/05/04 00:03:38;;;;;;;10.68;7.55;;;;;;;7.15;63.44;96129.72;5089992;28;20134;-68
2021/05/04 00:06:05;;;;;;;12.13;7.60;;;;;;;7.15;63.40;96125.13;5090128;28;20048;-68
2021/05/04 00:08:32;;;;;;;11.20;7.32;;;;;;;7.17;63.75;96122.13;5090209;28;20113;-68
2021/05/04 00:10:58;;;;;;;11.27;7.30;;;;;;;7.16;63.72;96115.09;5089911;28;20047;-68
2021/05/04 00:13:24;;;;;;;10.13;6.82;;;;;;;7.16;63.54;96109.69;5089997;28;20047;-68
2021/05/04 00:15:50;;;;;;;11.65;7.28;;;;;;;7.14;63.46;96109.97;5089683;28;20059;-66
2021/05/04 00:18:17;;;;;;;11.43;7.22;;;;;;;7.15;63.74;96102.66;5090455;28;20387;-68
2021/05/04 00:20:43;;;;;;;11.23;7.13;;;;;;;7.16;64.08;96098.84;5092042;28;20573;-66
2021/05/04 00:23:09;;;;;;;11.50;7.40;;;;;;;7.15;63.69;96098.06;5110615;28;20055;-66
2021/05/04 00:25:35;;;;;;;10.07;7.03;;;;;;;7.17;63.75;96095.03;5109879;28;20513;-65
2021/05/04 00:28:01;;;;;;;9.75;7.45;;;;;;;7.16;64.03;96098.84;5110314;28;20518;-66
2021/05/04 00:30:27;;;;;;;10.43;7.00;;;;;;;7.11;63.79;96086.22;5090044;28;20055;-65
2021/05/04 00:32:53;;;;;;;10.32;6.93;;;;;;;7.10;63.56;96086.50;5090045;28;20050;-66
2021/05/04 00:35:19;;;;;;;14.13;7.00;;;;;;;7.10;63.81;96089.22;5089608;28;20044;-66
2021/05/04 00:37:45;;;;;;;10.30;6.70;;;;;;;7.06;63.71;96087.13;5089637;28;20487;-66
2021/05/04 00:40:13;;;;;;;9.52;6.68;;;;;;;7.04;63.99;96078.47;5089855;28;20102;-65
2021/05/04 00:42:40;;;;;;;10.52;6.45;;;;;;;7.03;63.79;96073.38;5089231;28;20056;-65
2021/05/04 00:45:07;;;;;;;9.88;6.65;;;;;;;7.01;63.57;96076.41;5090136;28;20048;-66
2021/05/04 00:47:33;;;;;;;8.93;6.13;;;;;;;6.97;63.99;96075.38;5089392;28;20040;-66
2021/05/04 00:49:59;;;;;;;8.65;6.20;;;;;;;6.94;64.03;96065.19;5090394;28;20451;-65
2021/05/04 00:52:25;;;;;;;8.25;6.53;;;;;;;6.92;64.29;96070.06;5105888;28;20047;-66
2021/05/04 00:54:52;;;;;;;8.40;6.63;;;;;;;6.91;64.01;96059.56;5110537;28;20044;-65
2021/05/04 00:57:20;;;;;;;7.80;5.72;;;;;;;6.93;64.66;96055.44;5109606;28;20402;-66
2021/05/04 00:59:47;;;;;;;7.68;5.82;;;;;;;6.95;64.15;96055.16;5095616;28;20044;-66
2021/05/04 01:02:13;;;;;;;9.88;6.40;;;;;;;6.94;64.05;96057.06;5089562;28;20079;-66
2021/05/04 01:04:40;;;;;;;7.93;5.75;;;;;;;6.97;64.33;96056.44;5089243;28;20524;-66
2021/05/04 01:07:06;;;;;;;8.13;6.22;;;;;;;6.89;64.00;96051.75;5089784;28;20048;-67
2021/05/04 01:09:32;;;;;;;9.07;6.10;;;;;;;6.90;64.23;96047.94;5088963;28;20117;-66
2021/05/04 01:11:58;;;;;;;8.23;5.90;;;;;;;6.91;64.00;96044.13;5090036;28;20052;-66
2021/05/04 01:14:24;;;;;;;8.10;5.63;;;;;;;6.93;64.27;96041.09;5088484;28;20093;-66
2021/05/04 01:16:54;;;;;;;7.20;5.30;;;;;;;6.91;63.60;96037.91;5089849;28;20048;-66
2021/05/04 01:19:20;;;;;;;7.85;5.65;;;;;;;6.90;63.78;96037.09;5088991;28;20048;-66
2021/05/04 01:21:47;;;;;;;7.47;5.57;;;;;;;6.90;63.79;96037.09;5103271;28;20452;-66
2021/05/04 01:24:14;;;;;;;8.77;5.65;;;;;;;6.88;63.65;96028.47;5113009;28;20048;-66
2021/05/04 01:26:40;;;;;;;8.20;5.57;;;;;;;6.84;63.73;96027.50;5109573;28;20126;-66
2021/05/04 01:29:06;;;;;;;8.63;5.70;;;;;;;6.84;63.92;96027.50;5077749;28;20047;-66
2021/05/04 01:31:32;;;;;;;8.70;5.47;;;;;;;6.82;63.60;96018.84;5072201;28;20048;-65
2021/05/04 01:33:58;;;;;;;7.28;5.55;;;;;;;6.81;64.18;96025.38;5073388;28;20048;-66
2021/05/04 01:36:25;;;;;;;6.95;5.15;;;;;;;6.83;64.24;96015.03;5071784;28;20047;-66
2021/05/04 01:38:52;;;;;;;8.15;5.25;;;;;;;6.79;64.13;96014.84;5073177;28;20052;-66
2021/05/04 01:41:18;;;;;;;7.57;5.75;;;;;;;6.77;64.11;96005.44;5071904;28;20150;-66
2021/05/04 01:43:44;;;;;;;11.13;5.72;;;;;;;6.75;63.99;96015.75;5072868;28;20044;-65
2021/05/04 01:46:10;;;;;;;8.05;5.57;;;;;;;6.75;63.67;96016.56;5071963;28;20041;-66
2021/05/04 01:48:36;;;;;;;8.50;5.30;;;;;;;6.70;63.84;96005.84;5072489;28;20045;-66
2021/05/04 01:51:02;;;;;;;7.10;4.95;;;;;;;6.68;63.84;96016.16;5082680;28;20048;-66
2021/05/04 01:53:28;;;;;;;8.13;5.95;;;;;;;6.60;64.06;96007.94;5112572;28;20047;-66
2021/05/04 01:55:55;;;;;;;7.68;5.10;;;;;;;6.58;64.32;96013.66;5113486;28;20134;-66
2021/05/04 01:58:21;;;;;;;7.57;5.45;;;;;;;6.52;64.34;96010.25;5086208;28;25105;-66
2021/05/04 02:00:47;;;;;;;8.25;5.40;;;;;;;6.51;64.89;96011.34;5088604;28;20043;-66
2021/05/04 02:03:13;;;;;;;7.82;5.50;;;;;;;6.50;64.84;96004.31;5091458;28;20556;-66
2021/05/04 02:05:39;;;;;;;7.15;5.15;;;;;;;6.50;64.98;96000.81;5093087;28;20059;-66
2021/05/04 02:08:05;;;;;;;8.05;5.13;;;;;;;6.45;64.71;95999.03;5091799;28;20040;-66
2021/05/04 02:10:31;;;;;;;7.55;5.40;;;;;;;6.39;64.77;96005.63;5092526;28;20112;-65
2021/05/04 02:12:58;;;;;;;10.88;6.18;;;;;;;6.36;65.22;95998.09;5092372;28;20502;-66
2021/05/04 02:15:24;;;;;;;12.10;6.05;;;;;;;6.33;65.27;95990.59;5091379;28;20501;-66
2021/05/04 02:17:50;;;;;;;8.48;5.72;;;;;;;6.32;65.04;95988.19;5092408;28;20047;-66
2021/05/04 02:20:16;;;;;;;8.85;5.50;;;;;;;6.26;65.09;95977.50;5091413;28;20040;-66
2021/05/04 02:22:42;;;;;;;8.18;5.82;;;;;;;6.23;65.54;95990.78;5112170;28;20066;-66
2021/05/04 02:25:09;;;;;;;9.55;5.75;;;;;;;6.19;65.58;95978.97;5111386;28;20458;-65
2021/05/04 02:27:35;;;;;;;9.10;5.38;;;;;;;6.15;65.62;95978.75;5100210;28;20040;-66
2021/05/04 02:30:02;;;;;;;8.80;5.38;;;;;;;6.15;65.78;95972.56;5080427;28;20043;-66
2021/05/04 02:32:43;;;;;;;7.25;5.03;;;;;;;6.13;65.75;95969.34;5090741;28;20040;-66
2021/05/04 02:35:11;;;;;;;8.55;5.75;;;;;;;6.09;65.83;95969.13;5079991;28;20499;-66
2021/05/04 02:37:37;;;;;;;8.68;5.15;;;;;;;6.08;65.87;95966.75;5071373;28;20162;-66
2021/05/04 02:40:04;;;;;;;7.57;5.25;;;;;;;6.03;65.89;95966.84;5071405;28;20063;-67
2021/05/04 02:42:30;;;;;;;6.35;5.05;;;;;;;5.98;65.89;95956.91;5071035;28;20040;-65
2021/05/04 02:44:56;;;;;;;7.78;5.55;;;;;;;5.96;66.51;95959.91;5072102;28;20048;-66
2021/05/04 02:47:23;;;;;;;6.82;4.43;;;;;;;5.91;66.14;95951.06;5070417;28;20052;-66
2021/05/04 02:49:49;;;;;;;7.68;5.18;;;;;;;5.89;66.87;95943.25;5072134;28;20040;-66
2021/05/04 02:52:15;;;;;;;7.03;5.47;;;;;;;5.90;66.65;95944.88;5101545;28;20054;-66
2021/05/04 02:54:41;;;;;;;8.40;5.50;;;;;;;5.85;66.60;95942.25;5112152;28;20067;-66
2021/05/04 02:57:07;;;;;;;6.60;5.07;;;;;;;5.88;66.89;95948.97;5111008;28;20055;-66
2021/05/04 02:59:33;;;;;;;6.82;4.70;;;;;;;5.89;66.52;95943.25;5096591;28;20052;-66
2021/05/04 03:02:00;;;;;;;6.97;5.03;;;;;;;5.87;66.34;95940.06;5071186;28;20503;-66
2021/05/04 03:04:27;;;;;;;7.55;5.22;;;;;;;5.88;66.70;95935.44;5075287;28;20074;-66
2021/05/04 03:06:53;;;;;;;7.15;5.60;;;;;;;5.89;66.37;95932.44;5071513;28;20052;-66
2021/05/04 03:09:19;;;;;;;6.63;4.72;;;;;;;5.89;66.11;95927.03;5071065;28;20036;-66
2021/05/04 03:11:44;;;;;;;6.95;4.88;;;;;;;5.87;66.49;95931.94;5071801;28;20044;-66
2021/05/04 03:14:11;;;;;;;10.18;5.43;;;;;;;5.85;66.60;95926.06;5070837;28;20101;-66
2021/05/04 03:16:37;;;;;;;9.10;5.32;;;;;;;5.82;66.67;95929.34;5071477;28;20106;-66
2021/05/04 03:19:03;;;;;;;7.28;5.00;;;;;;;5.81;66.71;95926.94;5070056;28;20060;-66
2021/05/04 03:21:30;;;;;;;6.45;4.85;;;;;;;5.80;66.84;95928.03;5089361;28;20506;-66
2021/05/04 03:23:56;;;;;;;6.63;5.00;;;;;;;5.81;66.57;95933.13;5111148;28;20056;-66
2021/05/04 03:26:22;;;;;;;7.30;4.68;;;;;;;5.85;66.78;95925.25;5110904;28;20043;-66
2021/05/04 03:28:48;;;;;;;6.88;4.60;;;;;;;5.83;66.32;95933.63;5107782;28;20078;-66
2021/05/04 03:31:14;;;;;;;6.30;4.47;;;;;;;5.79;66.50;95926.41;5070421;28;20094;-66
2021/05/04 03:33:40;;;;;;;5.13;3.90;;;;;;;5.78;66.60;95922.91;5071057;28;20048;-66
2021/05/04 03:36:06;;;;;;;8.60;5.07;;;;;;;5.78;66.86;95920.22;5074527;28;20616;-66
2021/05/04 03:38:33;;;;;;;6.13;4.20;;;;;;;5.77;66.80;95918.63;5071163;28;20055;-66
2021/05/04 03:40:59;;;;;;;7.10;4.88;;;;;;;5.76;66.74;95917.03;5069984;28;20059;-66
2021/05/04 03:43:25;;;;;;;8.65;4.50;;;;;;;5.74;66.87;95909.22;5070143;28;20048;-66
2021/05/04 03:45:51;;;;;;;7.88;4.68;;;;;;;5.74;67.01;95911.94;5069910;28;20545;-66
2021/05/04 03:48:17;;;;;;;5.22;4.30;;;;;;;5.74;66.70;95903.00;5070093;28;20388;-66
2021/05/04 03:50:44;;;;;;;6.15;4.47;;;;;;;5.74;67.01;95909.22;5075964;28;20051;-66
2021/05/04 03:53:11;;;;;;;7.05;3.92;;;;;;;5.72;66.68;95907.91;5109969;28;20052;-66
2021/05/04 03:55:37;;;;;;;6.10;3.95;;;;;;;5.72;66.78;95900.59;5111056;28;20054;-66
2021/05/04 03:58:03;;;;;;;7.55;4.43;;;;;;;5.75;66.79;95910.03;5109621;28;20035;-66
2021/05/04 04:00:29;;;;;;;6.82;4.20;;;;;;;5.80;66.68;95912.63;5080372;28;20071;-66
2021/05/04 04:02:55;;;;;;;6.80;3.85;;;;;;;5.78;66.31;95908.59;5069527;28;20551;-66
2021/05/04 04:05:21;;;;;;;7.32;4.18;;;;;;;5.79;66.29;95911.00;5075524;28;20052;-66
2021/05/04 04:07:47;;;;;;;4.63;3.67;;;;;;;5.78;66.53;95905.91;5069660;28;20071;-66
2021/05/04 04:10:13;;;;;;;5.00;4.00;;;;;;;5.76;66.58;95906.22;5070010;28;20127;-66
2021/05/04 04:12:40;;;;;;;5.80;3.63;;;;;;;5.74;66.27;95901.13;5069800;28;20070;-66
2021/05/04 04:15:08;;;;;;;5.65;3.45;;;;;;;5.72;66.30;95905.19;5069446;28;20048;-68
2021/05/04 04:17:33;;;;;;;5.25;3.67;;;;;;;5.71;66.23;95904.41;5070143;28;20113;-66
2021/05/04 04:19:59;;;;;;;4.75;3.55;;;;;;;5.70;66.30;95902.81;5069736;28;20461;-66
2021/05/04 04:22:25;;;;;;;4.88;3.28;;;;;;;5.69;66.33;95901.22;5104071;28;20494;-67
2021/05/04 04:24:53;;;;;;;5.53;2.90;;;;;;;5.71;66.01;95904.41;5109586;28;20043;-68
2021/05/04 04:27:20;;;;;;;4.13;2.80;;;;;;;5.72;66.17;95899.81;5110509;28;20054;-68
2021/05/04 04:29:46;;;;;;;5.97;3.20;;;;;;;5.75;66.33;95905.41;5090691;28;20048;-66
2021/05/04 04:32:12;;;;;;;5.13;2.88;;;;;;;5.79;66.20;95900.19;5070119;28;20044;-66
2021/05/04 04:34:38;;;;;;;6.60;3.58;;;;;;;5.86;66.07;95900.63;5074361;28;20435;-66
2021/05/04 04:37:04;;;;;;;4.10;3.10;;;;;;;5.90;65.37;95901.63;5069508;28;20526;-65
2021/05/04 04:39:30;;;;;;;4.65;2.97;;;;;;;5.96;65.36;95889.66;5069675;28;20509;-68
2021/05/04 04:41:56;;;;;;;4.60;2.90;;;;;;;6.07;65.59;95890.25;5069480;28;20135;-66
2021/05/04 04:44:22;;;;;;;8.45;3.33;;;;;;;6.19;64.78;95881.63;5069259;28;20041;-66
2021/05/04 04:46:49;;;;;;;6.45;3.08;;;;;;;6.31;64.35;95884.63;5069272;28;20131;-65
2021/05/04 04:49:16;;;;;;;4.40;2.80;;;;;;;6.43;63.62;95882.22;5069688;28;20384;-68
2021/05/04 04:51:44;;;;;;;3.78;2.55;;;;;;;6.58;63.18;95885.69;5090764;28;20600;-67
2021/05/04 04:54:10;;;;;;;5.07;2.85;;;;;;;6.70;62.81;95886.78;5110116;28;20383;-68
2021/05/04 04:56:36;;;;;;;4.03;2.80;;;;;;;6.80;62.31;95883.06;5111556;28;20052;-67
2021/05/04 04:59:03;;;;;;;5.00;2.90;;;;;;;6.92;61.57;95882.50;5107474;28;20051;-68
2021/05/04 05:01:29;;;;;;;5.07;2.80;;;;;;;7.03;61.04;95881.16;5073131;28;20040;-68
2021/05/04 05:03:57;;;;;;;5.00;2.78;;;;;;;7.16;61.02;95876.81;5073540;28;20055;-68
2021/05/04 05:06:23;;;;;;;3.97;2.45;;;;;;;7.29;60.77;95875.94;5077349;28;20075;-68
2021/05/04 05:08:49;;;;;;;4.35;2.70;;;;;;;7.39;59.72;95870.28;5073026;28;20041;-68
2021/05/04 05:11:15;;;;;;;7.50;5.07;;;;;;;7.49;59.30;95880.06;5072840;28;20519;-68
2021/05/04 05:13:42;;;;;;;7.78;3.88;;;;;;;7.59;59.53;95880.59;5072544;28;20048;-68
2021/05/04 05:16:08;;;;;;;4.80;2.58;;;;;;;7.66;59.05;95879.34;5073246;28;20071;-66
2021/05/04 05:18:34;;;;;;;6.28;3.03;;;;;;;7.71;59.42;95876.50;5072654;28;20041;-66
2021/05/04 05:21:02;;;;;;;3.88;2.92;;;;;;;7.76;59.36;95879.09;5084075;28;20525;-66
2021/05/04 05:23:28;;;;;;;5.03;2.58;;;;;;;7.82;58.66;95873.22;5112705;28;20035;-65
2021/05/04 05:25:54;;;;;;;5.43;2.85;;;;;;;7.89;59.33;95867.38;5113915;28;20405;-65
2021/05/04 05:28:20;;;;;;;3.28;2.38;;;;;;;7.97;57.76;95869.31;5112713;28;20048;-65
2021/05/04 05:30:46;;;;;;;8.32;2.47;;;;;;;8.08;56.44;95867.91;5077614;28;20498;-65
2021/05/04 05:33:12;;;;;;;4.90;2.85;;;;;;;8.25;55.13;95866.38;5072728;28;20044;-66
2021/05/04 05:35:38;;;;;;;4.75;2.55;;;;;;;8.40;55.10;95851.59;5077396;28;20054;-66
2021/05/04 05:38:05;;;;;;;3.95;2.47;;;;;;;8.53;54.37;95854.19;5072758;28;20072;-66
2021/05/04 05:40:31;;;;;;;4.95;2.38;;;;;;;8.67;53.85;95853.25;5072056;28;20075;-65
2021/05/04 05:42:57;;;;;;;3.58;2.33;;;;;;;8.78;53.73;95854.53;5073449;28;20075;-66
2021/05/04 05:45:23;;;;;;;5.45;2.40;;;;;;;8.93;53.31;95840.50;5071675;28;20044;-66
2021/05/04 05:47:49;;;;;;;6.32;2.92;;;;;;;9.07;52.90;95846.53;5073138;28;20068;-71
2021/05/04 05:50:15;;;;;;;3.72;2.47;;;;;;;9.20;52.89;95839.34;5086959;28;20072;-69
2021/05/04 05:52:41;;;;;;;3.38;2.20;;;;;;;9.34;53.11;95839.97;5108489;28;20084;-69
2021/05/04 05:55:10;;;;;;;3.85;2.50;;;;;;;9.47;51.24;95842.81;5109409;28;20048;-70
2021/05/04 05:57:36;;;;;;;3.55;2.40;;;;;;;9.56;51.54;95843.63;5110322;28;20051;-70
2021/05/04 06:00:03;;;;;;;3.53;2.30;;;;;;;9.66;51.21;95846.78;5086490;28;20075;-70
2021/05/04 06:02:29;;;;;;;3.10;2.33;;;;;;;9.82;50.83;95840.81;5069541;28;20197;-70
2021/05/04 06:04:55;;;;;;;4.35;2.33;;;;;;;9.82;50.90;95841.63;5075217;28;20052;-70
2021/05/04 06:07:21;;;;;;;3.28;2.25;;;;;;;9.95;50.72;95845.22;5068218;28;20652;-70
2021/05/04 06:09:47;;;;;;;3.22;2.40;;;;;;;10.11;51.05;95835.41;5070164;28;20128;-70
2021/05/04 06:12:14;;;;;;;3.63;2.28;;;;;;;10.22;50.04;95829.59;5068404;28;20047;-70
2021/05/04 06:14:40;;;;;;;3.13;2.13;;;;;;;10.30;50.04;95824.13;5069554;28;20475;-70
2021/05/04 06:17:06;;;;;;;3.85;2.22;;;;;;;10.42;49.79;95820.69;5068728;28;20075;-70
2021/05/04 06:19:32;;;;;;;6.53;2.38;;;;;;;10.56;49.77;95823.97;5082423;28;20414;-70
2021/05/04 06:21:58;;;;;;;5.88;2.58;;;;;;;10.73;50.98;95822.25;5089258;28;20078;-69
2021/05/04 06:24:24;;;;;;;3.42;2.10;;;;;;;10.81;49.47;95819.50;5087118;28;20147;-70
2021/05/04 06:26:51;;;;;;;3.15;2.30;;;;;;;10.89;49.07;95823.25;5089089;28;20067;-70
2021/05/04 06:29:18;;;;;;;7.47;2.42;;;;;;;11.03;48.85;95821.06;5083431;28;20052;-70
2021/05/04 06:31:46;;;;;;;5.05;3.08;;;;;;;11.15;48.64;95820.31;5089500;28;20525;-70
2021/05/04 06:34:13;;;;;;;3.45;2.28;;;;;;;11.28;48.32;95824.69;5076964;28;20075;-70
2021/05/04 06:36:40;;;;;;;3.72;2.22;;;;;;;11.29;47.22;95817.31;5069029;28;20080;-70
2021/05/04 06:39:06;;;;;;;5.28;2.35;;;;;;;11.31;47.27;95821.28;5068162;28;20422;-70
2021/05/04 06:41:35;;;;;;;7.50;2.40;;;;;;;11.33;47.48;95818.22;5066886;28;20392;-67
2021/05/04 06:44:01;;;;;;;3.80;2.30;;;;;;;11.39;47.12;95811.44;5067596;28;20177;-71
2021/05/04 06:46:29;;;;;;;6.15;2.20;;;;;;;11.41;46.90;95803.72;5068303;28;20041;-67
2021/05/04 06:48:55;;;;;;;5.35;2.20;;;;;;;11.49;46.06;95805.56;5068399;28;20393;-68
2021/05/04 06:51:21;;;;;;;4.22;2.05;;;;;;;11.61;44.88;95802.06;5083335;28;20055;-67
2021/05/04 06:53:48;;;;;;;4.47;2.17;;;;;;;11.62;44.57;95804.44;5109187;28;20755;-67
2021/05/04 06:56:14;;;;;;;7.38;2.50;;;;;;;11.65;46.14;95798.34;5108558;28;20043;-67
2021/05/04 06:58:40;;;;;;;5.35;2.30;;;;;;;11.64;45.41;95783.09;5110153;28;20047;-66
2021/05/04 07:01:06;;;;;;;6.13;2.13;;;;;;;11.76;44.41;95788.56;5071947;28;20057;-67
2021/05/04 07:03:33;;;;;;;5.38;2.20;;;;;;;11.75;44.35;95780.75;5071864;28;20044;-67
2021/05/04 07:05:59;;;;;;;5.50;2.33;;;;;;;11.77;44.46;95784.69;5070699;28;20504;-67
2021/05/04 07:08:25;;;;;;;3.78;2.25;;;;;;;11.86;43.94;95775.66;5070784;28;20131;-68
2021/05/04 07:10:51;;;;;;;3.22;2.20;;;;;;;11.97;44.19;95782.25;5071094;28;20484;-68
2021/05/04 07:13:17;;;;;;;4.30;2.10;;;;;;;11.96;42.65;95780.66;5070359;28;20052;-68
2021/05/04 07:15:44;;;;;;;4.47;1.98;;;;;;;12.02;43.78;95782.03;5071095;28;20044;-67
2021/05/04 07:18:10;;;;;;;3.22;1.92;;;;;;;12.12;43.92;95784.31;5069459;28;20048;-66
2021/05/04 07:20:39;;;;;;;4.20;2.28;;;;;;;12.15;43.00;95772.69;5074903;28;20048;-67
2021/05/04 07:23:08;;;;;;;4.60;2.65;;;;;;;12.17;43.19;95775.91;5110148;28;20451;-68
2021/05/04 07:25:35;;;;;;;3.97;2.40;;;;;;;12.38;43.47;95774.97;5111695;28;20671;-67
2021/05/04 07:28:01;;;;;;;5.53;2.15;;;;;;;12.43;43.84;95772.00;5110774;28;20048;-67
2021/05/04 07:30:28;;;;;;;3.17;2.35;;;;;;;12.49;43.00;95776.09;5080719;28;20722;-66
2021/05/04 07:32:54;;;;;;;3.75;2.10;;;;;;;12.51;43.09;95773.78;5070435;28;20045;-69
2021/05/04 07:35:19;;;;;;;5.75;2.30;;;;;;;12.61;43.12;95765.13;5070000;28;20122;-68
2021/05/04 07:37:46;;;;;;;6.07;2.13;;;;;;;12.72;43.00;95768.97;5070398;28;20529;-68
2021/05/04 07:40:12;;;;;;;4.68;2.40;;;;;;;12.74;42.42;95760.44;5085139;28;20506;-68
2021/05/04 07:42:39;;;;;;;5.43;2.40;;;;;;;12.96;41.13;95768.09;5090815;28;20133;-69
2021/05/04 07:45:06;;;;;;;4.63;2.35;;;;;;;13.12;42.03;95759.16;5089377;28;20158;-69
2021/05/04 07:47:32;;;;;;;6.25;2.05;;;;;;;13.36;40.92;95756.31;5091002;28;20047;-68
2021/05/04 07:49:58;;;;;;;7.03;2.25;;;;;;;14.12;40.37;95762.53;5090139;28;20044;-68
2021/05/04 07:52:24;;;;;;;7.05;2.25;;;;;;;14.40;38.90;95758.88;5107165;28;20051;-69
2021/05/04 07:54:52;;;;;;;4.22;2.13;;;;;;;15.09;37.79;95754.53;5110227;28;20121;-68
2021/05/04 07:57:19;;;;;;;9.35;2.83;;;;;;;15.67;38.17;95751.72;5110683;28;20043;-68
2021/05/04 07:59:45;;;;;;;9.00;2.45;;;;;;;16.25;34.90;95743.25;5092727;28;20049;-68
2021/05/04 08:02:11;;;;;;;4.57;2.40;;;;;;;16.54;34.68;95743.66;5051125;28;20044;-69
2021/05/04 08:04:37;;;;;;;7.60;3.25;;;;;;;16.12;34.86;95752.84;5070555;28;20078;-68
2021/05/04 08:07:07;;;;;;;5.00;2.08;;;;;;;16.10;35.88;95753.22;5068943;28;20048;-68
2021/05/04 08:09:33;;;;;;;4.75;2.20;;;;;;;16.16;35.47;95743.50;5070856;28;20048;-68
2021/05/04 08:11:59;;;;;;;4.22;2.10;;;;;;;16.21;36.13;95736.13;5069142;28;20087;-68
2021/05/04 08:14:26;;;;;;;4.35;2.30;;;;;;;16.10;36.38;95730.47;5070035;28;20071;-68
2021/05/04 08:16:53;;;;;;;5.88;2.60;;;;;;;16.19;36.12;95722.75;5069034;28;20524;-68
2021/05/04 08:19:19;;;;;;;4.88;2.30;;;;;;;16.61;36.67;95741.03;5069723;28;20051;-69
2021/05/04 08:21:45;;;;;;;5.85;2.60;;;;;;;16.59;33.17;95729.59;5092196;28;20043;-69
2021/05/04 08:24:12;;;;;;;4.93;2.17;;;;;;;16.12;34.50;95722.63;5109927;28;20126;-68
2021/05/04 08:26:38;;;;;;;3.72;2.20;;;;;;;15.92;35.64;95719.16;5110052;28;20048;-68
2021/05/04 08:29:05;;;;;;;5.50;2.35;;;;;;;15.79;35.78;95721.31;5102317;28;20048;-69
2021/05/04 08:31:31;;;;;;;3.97;2.30;;;;;;;15.80;35.93;95711.13;5073698;28;20044;-68
2021/05/04 08:33:57;;;;;;;2.80;1.85;;;;;;;16.16;36.81;95718.00;5073419;28;20519;-68
2021/05/04 08:36:23;;;;;;;5.10;2.35;;;;;;;16.42;35.65;95719.94;5073812;28;20080;-68
2021/05/04 08:38:49;;;;;;;5.43;2.20;;;;;;;16.60;32.32;95714.69;5073360;28;20485;-68
2021/05/04 08:41:16;;;;;;;5.70;2.08;;;;;;;16.92;34.77;95710.44;5077934;28;20044;-68
2021/05/04 08:43:45;;;;;;;5.43;2.03;;;;;;;17.41;35.86;95714.91;5093342;28;20063;-68
2021/05/04 08:46:12;;;;;;;4.95;2.15;;;;;;;17.28;33.22;95710.03;5093845;28;20063;-70
2021/05/04 08:48:39;;;;;;;4.75;2.15;;;;;;;17.29;32.69;95715.19;5094436;28;20102;-68
2021/05/04 08:51:05;;;;;;;4.00;1.90;;;;;;;17.24;32.17;95712.75;5098976;28;20047;-68
2021/05/04 08:53:31;;;;;;;2.50;1.70;;;;;;;17.18;33.67;95712.31;5114498;28;20047;-68
2021/05/04 08:55:57;;;;;;;4.00;2.13;;;;;;;17.11;34.96;95711.41;5113266;28;20039;-68
2021/05/04 08:58:24;;;;;;;2.88;2.30;;;;;;;17.25;33.31;95706.09;5114085;28;20074;-68
2021/05/04 09:00:51;;;;;;;2.40;1.63;;;;;;;16.97;32.21;95712.06;5088648;28;20565;-69
2021/05/04 09:03:20;;;;;;;5.63;1.90;;;;;;;16.83;34.12;95707.19;5092207;28;20051;-68
2021/05/04 09:05:52;;;;;;;4.05;2.17;;;;;;;17.43;32.69;95712.56;5072511;28;20068;-69
2021/05/04 09:08:34;;;;;;;5.78;2.40;;;;;;;17.85;33.00;95703.13;5073479;28;20053;-69
2021/05/04 09:11:30;;;;;;;3.10;2.00;;;;;;;18.16;33.38;95703.78;5073107;28;20491;-69
2021/05/04 09:14:03;;;;;;;4.30;2.10;;;;;;;18.56;31.97;95705.63;5072517;28;20069;-68
2021/05/04 09:16:40;;;;;;;4.90;1.85;;;;;;;18.82;29.69;95695.53;5073506;28;20036;-69
2021/05/04 09:21:54;;;;;;;2.90;1.85;;;;;;;19.00;30.26;95691.69;5085757;28;20055;-69
2021/05/04 09:24:26;;;;;;;5.50;2.13;;;;;;;18.92;29.74;95684.56;5092482;28;20052;-69
2021/05/04 09:27:00;;;;;;;4.72;2.40;;;;;;;18.66;30.58;95687.56;5092209;28;20051;-69
2021/05/04 09:29:31;;;;;;;5.50;1.98;;;;;;;18.12;29.66;95691.97;5080997;28;20140;-68
2021/05/04 09:32:18;;;;;;;3.38;2.15;;;;;;;17.81;33.69;95666.53;5072265;28;20040;-67
2021/05/04 09:34:50;;;;;;;3.13;2.05;;;;;;;17.62;32.60;95664.78;5072575;28;20041;-69
2021/05/04 09:37:28;;;;;;;2.22;1.70;;;;;;;17.60;34.52;95669.09;5070744;28;20049;-68
2021/05/04 09:39:55;;;;;;;5.38;2.35;;;;;;;17.53;32.79;95664.28;5071311;28;20055;-68
2021/05/04 09:42:21;;;;;;;5.78;1.85;;;;;;;17.34;31.15;95664.53;5071428;28;20392;-68
2021/05/04 09:44:48;;;;;;;3.08;1.77;;;;;;;17.27;31.98;95661.69;5071790;28;20047;-67
2021/05/04 09:47:20;;;;;;;7.28;2.28;;;;;;;17.04;30.64;95670.09;5072550;28;20458;-69
2021/05/04 09:49:47;;;;;;;2.90;1.73;;;;;;;16.72;29.81;95662.25;5071304;28;20048;-68
2021/05/04 09:52:33;;;;;;;3.72;1.83;;;;;;;16.62;31.42;95641.69;5087861;28;20040;-68
2021/05/04 09:55:06;;;;;;;4.68;1.98;;;;;;;16.50;29.04;95652.16;5093085;28;20554;-68
2021/05/04 09:57:37;;;;;;;3.35;1.92;;;;;;;16.38;30.11;95648.44;5074118;28;20048;-68
2021/05/04 10:00:07;;;;;;;4.78;2.10;;;;;;;16.39;29.92;95669.28;5056131;28;20527;-67
2021/05/04 10:02:34;;;;;;;3.22;1.80;;;;;;;16.35;30.60;95642.91;5069871;28;20040;-68
2021/05/04 10:05:01;;;;;;;3.50;1.48;;;;;;;16.58;30.07;95648.31;5072698;28;20511;-68
2021/05/04 10:07:29;;;;;;;9.32;2.00;;;;;;;16.46;28.60;95643.84;5051412;28;20546;-67
2021/05/04 10:09:55;;;;;;;3.05;1.60;;;;;;;16.68;31.64;95637.44;5061281;28;20052;-67
2021/05/04 10:12:22;;;;;;;3.47;1.92;;;;;;;16.81;28.78;95627.03;5062177;28;20086;-69
2021/05/04 10:14:50;;;;;;;6.80;1.85;;;;;;;16.77;28.58;95626.19;5064145;28;20075;-68
2021/05/04 10:17:17;;;;;;;7.88;2.13;;;;;;;16.56;29.94;95625.91;5060716;28;20518;-68
2021/05/04 10:19:43;;;;;;;3.10;1.80;;;;;;;16.38;28.47;95653.94;5060948;28;20127;-67
2021/05/04 10:22:11;;;;;;;4.00;1.63;;;;;;;16.43;29.73;95623.38;5091671;28;20410;-68
2021/05/04 10:24:40;;;;;;;5.60;2.00;;;;;;;16.58;29.74;95621.59;5112459;28;20047;-68
2021/05/04 10:27:08;;;;;;;3.55;1.85;;;;;;;16.63;30.22;95609.50;5112070;28;20038;-68
2021/05/04 10:29:36;;;;;;;3.00;1.83;;;;;;;16.88;31.04;95631.81;5096272;28;20048;-67
2021/05/04 10:32:03;;;;;;;4.25;1.70;;;;;;;16.80;30.11;95630.91;5063216;28;20484;-67
2021/05/04 10:34:31;;;;;;;4.55;1.70;;;;;;;16.76;30.39;95618.28;5059423;28;20060;-67
2021/05/04 10:36:59;;;;;;;3.35;1.60;;;;;;;16.99;31.16;95609.94;5060335;28;20041;-68
2021/05/04 10:39:38;;;;;;;2.53;1.58;;;;;;;17.24;29.91;95605.47;5070580;28;20044;-66
2021/05/04 10:42:05;;;;;;;3.30;1.70;;;;;;;17.12;30.10;95608.47;5069452;28;20075;-68
2021/05/04 10:44:52;;;;;;;2.67;1.65;;;;;;;17.02;29.30;95617.41;5071690;28;20076;-68
2021/05/04 10:47:47;;;;;;;3.65;1.50;;;;;;;16.94;30.15;95600.06;5070241;28;20048;-67
2021/05/04 10:50:14;;;;;;;3.20;1.50;;;;;;;16.81;32.92;95595.97;5071406;28;20525;-69
2021/05/04 10:53:01;;;;;;;8.30;1.58;;;;;;;16.98;32.52;95586.34;5108972;28;20043;-68
2021/05/04 10:55:59;;;;;;;3.10;1.33;;;;;;;17.04;30.52;95579.31;5111110;28;20035;-68
2021/05/04 10:58:26;;;;;;;2.58;1.27;;;;;;;16.90;30.34;95580.75;5097615;28;20062;-69
2021/05/04 11:00:53;;;;;;;4.45;1.42;;;;;;;17.07;31.58;95576.63;5074027;28;20044;-69
2021/05/04 11:03:46;;;;;;;1.65;1.35;;;;;;;16.98;30.55;95567.88;5071488;28;20198;-69
2021/05/04 11:06:13;;;;;;;3.60;1.65;;;;;;;17.18;33.46;95576.72;5070106;28;20563;-70
2021/05/04 11:09:08;;;;;;;2.85;1.60;;;;;;;17.31;30.44;95583.50;5071944;28;20174;-67
2021/05/04 11:11:39;;;;;;;3.60;2.13;;;;;;;17.17;29.67;95567.69;5078370;28;20044;-69
2021/05/04 11:14:06;;;;;;;2.13;1.30;;;;;;;17.06;30.48;95565.97;5089981;28;20040;-68
2021/05/04 11:16:34;;;;;;;3.33;1.35;;;;;;;17.12;29.95;95575.47;5091630;28;20047;-69
2021/05/04 11:19:04;;;;;;;2.70;1.48;;;;;;;17.13;29.50;95560.56;5090304;28;20040;-69
2021/05/04 11:21:38;;;;;;;5.15;1.65;;;;;;;17.20;30.48;95555.09;5074073;28;20094;-67
2021/05/04 11:24:06;;;;;;;4.32;1.40;;;;;;;17.27;31.97;95555.16;5069546;28;20052;-67
2021/05/04 11:26:46;;;;;;;5.55;1.50;;;;;;;17.42;32.07;95567.06;5070641;28;20055;-68
2021/05/04 11:29:14;;;;;;;3.17;1.27;;;;;;;17.44;30.78;95553.75;5061165;28;20495;-66
2021/05/04 11:31:42;;;;;;;3.35;1.38;;;;;;;17.30;32.12;95556.38;5049487;28;20396;-67
2021/05/04 11:34:37;;;;;;;3.63;1.55;;;;;;;17.27;32.27;95546.91;5049405;28;20049;-68
2021/05/04 11:37:05;;;;;;;3.78;1.52;;;;;;;17.47;33.81;95547.47;5048895;28;20519;-67
2021/05/04 11:39:31;;;;;;;3.67;1.45;;;;;;;17.56;31.47;95533.38;5049711;28;20710;-67
2021/05/04 11:41:59;;;;;;;5.18;1.30;;;;;;;17.48;30.81;95527.81;5049571;28;20045;-67